Brookhaven, New York
Current Conditions -  °F | °C
As of 3:56 PM on Tuesday 21 Oct 2014 (Local Time) from KHWV Reporting Station
Broken Clouds Broken Clouds  
Wind Chill: 65°   Ceiling: 6000
Heat Index: 65°   Visibility: 10mi
Dew Point: 55°   Wind: 5mph
Humidity: 70%   Direction: 160°SSE
Pressure: 29.87"   Gusts: NA
Location:  40.78°N, 72.91°W
Report Text: KHWV 211956Z AUTO 16004KT 10SM BKN060 BKN110 18/13 A2987 RMK AO2 SLP113 T01830128 TSNO
Loading
Personal Weather Stations






























Interactive Weather Map
Tropical Storm Tracking
New forecast layout! Learn more

10-Day Weather Forecast

Advertisements
Track Severe Weather on mobile